PILOTS ONLINE: 463    ATC ONLINE: 80

Location

City Glendale
Country  United States
Latitude 33° 31' 36" N
Longitude 112° 17' 41" W
Elevation 1071 ft
Type Small Airport

Weather

METAR
2014/07/11 16:48
KGEU 111648Z 21003KT 20SM FEW120 FEW250 34/14 A2991
TAF
No TAF available

Runways

01/19 7099 ft / 100 ft

Outbound flights

Inbound flights


Spotted incorrect airport information? Please login with your VATSIM ID.